createdAt,value
2018-09-10T00:01:28.777Z,100989.17
2018-09-10T00:04:00.304Z,100988.12
2018-09-10T00:06:31.760Z,100989.41
2018-09-10T00:09:03.428Z,100982.39
2018-09-10T00:11:34.914Z,100985.30
2018-09-10T00:14:05.522Z,100983.41
2018-09-10T00:16:37.018Z,100983.41
2018-09-10T00:19:08.691Z,100985.62
2018-09-10T00:21:40.226Z,100985.62
2018-09-10T00:24:11.733Z,100984.45
2018-09-10T00:26:43.229Z,100972.03
2018-09-10T00:29:14.812Z,100979.37
2018-09-10T00:31:46.392Z,100982.59
2018-09-10T00:34:17.977Z,100992.69
2018-09-10T00:36:49.548Z,100988.27
2018-09-10T00:39:21.330Z,100989.81
2018-09-10T00:41:52.747Z,100990.80
2018-09-10T00:44:24.213Z,100990.31
2018-09-10T00:46:56.225Z,100991.53
2018-09-10T00:49:27.749Z,100986.06
2018-09-10T00:51:59.208Z,100983.50
2018-09-10T00:54:30.771Z,100988.44
2018-09-10T00:57:02.280Z,100988.44
2018-09-10T00:59:34.069Z,100980.09
2018-09-10T01:02:05.679Z,100982.97
2018-09-10T01:04:37.301Z,100981.60
2018-09-10T01:07:08.701Z,100978.41
2018-09-10T01:09:40.204Z,100981.14
2018-09-10T01:12:11.717Z,100976.05
2018-09-10T01:14:43.444Z,100972.59
2018-09-10T01:17:14.987Z,100976.20
2018-09-10T01:19:46.878Z,100965.11
2018-09-10T01:22:18.510Z,100965.95
2018-09-10T01:24:50.226Z,100965.11
2018-09-10T01:29:53.853Z,100962.23
2018-09-10T01:32:24.881Z,100959.81
2018-09-10T01:35:05.868Z,100958.13
2018-09-10T01:37:37.629Z,100955.39
2018-09-10T01:40:09.368Z,100951.99
2018-09-10T01:42:40.830Z,100961.04
2018-09-10T01:45:12.638Z,100956.77
2018-09-10T01:47:44.206Z,100957.08
2018-09-10T01:50:15.861Z,100960.52
2018-09-10T01:52:47.389Z,100963.95
2018-09-10T01:55:19.192Z,100963.63
2018-09-10T01:57:50.679Z,100959.52
2018-09-10T02:00:22.438Z,100962.11
2018-09-10T02:02:53.962Z,100958.33
2018-09-10T02:05:25.737Z,100951.84
2018-09-10T02:07:57.311Z,100947.22
2018-09-10T02:10:28.997Z,100948.13
2018-09-10T02:13:00.765Z,100948.13
2018-09-10T02:15:32.412Z,100946.55
2018-09-10T02:18:04.001Z,100946.75
2018-09-10T02:20:35.642Z,100951.00
2018-09-10T02:23:07.198Z,100951.34
2018-09-10T02:25:38.850Z,100952.08
2018-09-10T02:41:19.648Z,100947.48
2018-09-10T02:43:50.713Z,100948.53
2018-09-10T02:46:21.718Z,100953.83
2018-09-10T02:48:52.798Z,100950.88
2018-09-10T02:51:23.839Z,100946.61
2018-09-10T02:53:55.875Z,100942.39
2018-09-10T02:56:26.860Z,100957.19
2018-09-10T02:58:57.810Z,100952.80
2018-09-10T03:01:28.871Z,100958.62
2018-09-10T03:03:59.791Z,100955.22
2018-09-10T03:06:30.850Z,100948.41
2018-09-10T03:09:01.931Z,100952.02
2018-09-10T03:11:32.325Z,100950.97
2018-09-10T03:14:03.524Z,100953.33
2018-09-10T03:16:34.689Z,100955.38
2018-09-10T03:19:05.723Z,100953.17
2018-09-10T03:21:36.787Z,100952.86
2018-09-10T03:24:07.812Z,100951.81
2018-09-10T03:26:38.606Z,100941.08
2018-09-10T03:29:10.348Z,100950.97
2018-09-10T03:31:41.596Z,100944.97
2018-09-10T03:34:12.777Z,100941.42
2018-09-10T03:36:43.817Z,100937.53
2018-09-10T03:39:15.673Z,100946.25
2018-09-10T03:41:46.704Z,100953.08
2018-09-10T03:44:17.865Z,100950.14
2018-09-10T03:46:49.542Z,100947.47
2018-09-10T03:49:21.322Z,100947.09
2018-09-10T03:51:52.716Z,100950.50
2018-09-10T03:54:24.341Z,100952.56
2018-09-10T03:56:55.826Z,100955.09
2018-09-10T03:59:27.420Z,100965.03
2018-09-10T04:01:58.852Z,100964.86
2018-09-10T04:04:30.451Z,100957.03
2018-09-10T04:07:01.984Z,100962.30
2018-09-10T04:09:33.444Z,100962.82
2018-09-10T04:12:04.837Z,100965.87
2018-09-10T04:14:36.471Z,100972.22
2018-09-10T04:17:08.398Z,100964.51
2018-09-10T04:19:40.217Z,100967.61
2018-09-10T04:22:11.786Z,100970.70
2018-09-10T04:24:43.428Z,100972.55
2018-09-10T04:27:14.964Z,100974.59
2018-09-10T04:29:45.752Z,100964.20
2018-09-10T04:32:17.429Z,100960.46
2018-09-10T04:34:49.203Z,100963.56
2018-09-10T04:37:20.729Z,100964.94
2018-09-10T04:39:52.441Z,100946.88
2018-09-10T04:42:23.960Z,100959.94
2018-09-10T04:44:54.635Z,100956.38
2018-09-10T04:47:26.652Z,100954.50
2018-09-10T04:49:58.378Z,100962.00
2018-09-10T04:52:29.884Z,100960.46
2018-09-10T04:55:01.436Z,100967.09
2018-09-10T04:57:32.827Z,100963.89
2018-09-10T05:00:04.450Z,100962.34
2018-09-10T05:02:35.905Z,100963.56
2018-09-10T05:06:59.365Z,100964.20
2018-09-10T05:09:30.807Z,100958.05
2018-09-10T05:12:02.376Z,100961.13
2018-09-10T05:14:33.567Z,100959.09
2018-09-10T05:17:05.059Z,100958.89
2018-09-10T05:19:36.917Z,100964.36
2018-09-10T05:22:07.659Z,100963.66
2018-09-10T05:24:38.819Z,100966.92
2018-09-10T05:27:10.306Z,100961.33
2018-09-10T05:29:41.651Z,100969.33
2018-09-10T05:32:12.964Z,100970.50
2018-09-10T05:34:50.343Z,100977.30
2018-09-10T05:37:21.754Z,100985.20
2018-09-10T05:39:53.346Z,100979.23
2018-09-10T05:42:24.749Z,100987.73
2018-09-10T05:44:56.578Z,100991.84
2018-09-10T05:47:28.067Z,100991.34
2018-09-10T05:49:59.741Z,100998.48
2018-09-10T05:52:31.298Z,101001.38
2018-09-10T05:55:02.870Z,101003.13
2018-09-10T05:57:34.422Z,101001.38
2018-09-10T06:00:06.448Z,101002.92
2018-09-10T06:02:37.788Z,100998.82
2018-09-10T06:05:09.295Z,100995.22
2018-09-10T06:07:40.856Z,100990.23
2018-09-10T06:10:12.294Z,100992.56
2018-09-10T06:12:43.756Z,100986.89
2018-09-10T06:15:15.253Z,100988.25
2018-09-10T06:17:46.761Z,100997.40
2018-09-10T06:20:18.213Z,100996.70
2018-09-10T06:22:50.300Z,100999.09
2018-09-10T06:25:21.790Z,101001.12
2018-09-10T06:27:53.344Z,100999.00
2018-09-10T06:30:24.719Z,101004.83
2018-09-10T06:32:56.861Z,101000.20
2018-09-10T06:35:28.403Z,101002.38
2018-09-10T06:38:00.723Z,101001.30
2018-09-10T06:40:32.323Z,100988.85
2018-09-10T06:43:04.219Z,101002.32
2018-09-10T06:45:35.579Z,101005.58
2018-09-10T06:48:07.045Z,101003.37
2018-09-10T06:50:38.560Z,101012.94
2018-09-10T06:53:10.283Z,101017.22
2018-09-10T06:55:41.704Z,101018.64
2018-09-10T06:58:13.426Z,101022.84
2018-09-10T07:00:44.964Z,101023.51
2018-09-10T07:03:15.697Z,101023.69
2018-09-10T07:06:59.745Z,101018.88
2018-09-10T07:09:30.825Z,101017.38
2018-09-10T07:12:01.864Z,101005.05
2018-09-10T07:14:33.435Z,101010.18
2018-09-10T07:17:04.900Z,101015.30
2018-09-10T07:19:35.636Z,101015.16
2018-09-10T07:22:07.206Z,101012.22
2018-09-10T07:24:38.794Z,101008.95
2018-09-10T07:27:10.380Z,101006.89
2018-09-10T07:29:41.908Z,101000.75
2018-09-10T07:32:12.528Z,100997.84
2018-09-10T07:34:44.214Z,100988.59
2018-09-10T07:37:15.714Z,100989.25
2018-09-10T07:39:47.412Z,100990.45
2018-09-10T07:42:18.765Z,100995.72
2018-09-10T07:44:50.318Z,100991.44
2018-09-10T07:47:21.855Z,100989.89
2018-09-10T07:49:53.522Z,100993.61
2018-09-10T07:52:25.305Z,100994.59
2018-09-10T07:54:56.806Z,100998.31
2018-09-10T07:57:28.497Z,100989.59
2018-09-10T07:59:59.905Z,100996.25
2018-09-10T08:02:30.564Z,100990.08
2018-09-10T08:05:02.222Z,100999.30
2018-09-10T08:07:33.713Z,100992.95
2018-09-10T08:10:05.308Z,100997.69
2018-09-10T08:12:36.781Z,100996.29
2018-09-10T08:15:08.430Z,100993.80
2018-09-10T08:17:40.707Z,100998.50
2018-09-10T08:20:11.803Z,101000.50
2018-09-10T08:22:42.883Z,101002.19
2018-09-10T08:25:14.589Z,100998.22
2018-09-10T08:27:46.210Z,101006.05
2018-09-10T08:30:17.789Z,101006.50
2018-09-10T08:32:48.917Z,101012.33
2018-09-10T08:35:19.377Z,101009.45
2018-09-10T08:37:50.917Z,101004.25
2018-09-10T08:40:21.533Z,101003.73
2018-09-10T08:42:53.286Z,101000.29
2018-09-10T08:45:24.692Z,100997.55
2018-09-10T08:47:56.200Z,100992.87
2018-09-10T08:50:27.716Z,100994.03
2018-09-10T08:52:59.421Z,101001.27
2018-09-10T08:55:30.918Z,100998.67
2018-09-10T08:58:02.428Z,100991.30
2018-09-10T09:00:34.057Z,101006.31
2018-09-10T09:03:05.690Z,101003.44
2018-09-10T09:05:37.210Z,100999.13
2018-09-10T09:08:08.754Z,101003.09
2018-09-10T09:10:40.381Z,101001.82
2018-09-10T09:13:11.993Z,101008.80
2018-09-10T09:15:43.673Z,101013.16
2018-09-10T09:18:15.346Z,101015.94
2018-09-10T09:20:46.832Z,101009.76
2018-09-10T09:23:18.424Z,101002.07
2018-09-10T09:25:49.866Z,101001.37
2018-09-10T09:28:21.701Z,100994.00
2018-09-10T09:30:53.301Z,100986.03
2018-09-10T09:33:25.418Z,100986.76
2018-09-10T09:36:02.620Z,100987.15
2018-09-10T09:38:39.609Z,100987.99
2018-09-10T09:41:16.323Z,100981.53
2018-09-10T09:43:52.823Z,100974.12
2018-09-10T09:46:24.471Z,100967.05
2018-09-10T09:48:55.902Z,100970.58
2018-09-10T09:51:27.382Z,100974.87
2018-09-10T09:53:58.805Z,100973.77
2018-09-10T09:57:58.737Z,100972.91
2018-09-10T10:00:35.327Z,100972.88
2018-09-10T10:03:11.688Z,100977.77
2018-09-10T10:05:43.209Z,100971.79
2018-09-10T10:08:14.720Z,100969.23
2018-09-10T10:10:46.371Z,100963.94
2018-09-10T10:13:17.824Z,100959.13
2018-09-10T10:15:49.328Z,100959.37
2018-09-10T10:18:20.778Z,100970.48
2018-09-10T10:20:51.787Z,100965.92
2018-09-10T10:23:23.032Z,100958.16
2018-09-10T10:25:54.686Z,100957.50
2018-09-10T10:28:26.217Z,100956.88
2018-09-10T10:30:57.713Z,100950.07
2018-09-10T10:33:29.320Z,100948.95
2018-09-10T10:36:00.723Z,100953.90
2018-09-10T10:38:32.874Z,100951.75
2018-09-10T10:41:04.451Z,100951.16
2018-09-10T10:43:35.852Z,100957.48
2018-09-10T10:46:07.353Z,100960.60
2018-09-10T10:48:39.218Z,100953.09
2018-09-10T10:51:10.752Z,100954.95
2018-09-10T10:53:42.286Z,100950.45
2018-09-10T10:56:13.703Z,100946.08
2018-09-10T10:58:45.238Z,100944.84
2018-09-10T11:01:16.758Z,100942.42
2018-09-10T11:03:48.334Z,100942.95
2018-09-10T11:06:19.789Z,100937.34
2018-09-10T11:08:51.656Z,100941.58
2018-09-10T11:11:23.028Z,100948.25
2018-09-10T11:13:54.632Z,100944.31
2018-09-10T11:16:56.541Z,100948.63
2018-09-10T11:19:27.784Z,100943.34
2018-09-10T11:21:58.845Z,100939.94
2018-09-10T11:24:29.868Z,100941.44
2018-09-10T11:27:00.852Z,100940.46
2018-09-10T11:29:31.884Z,100936.36
2018-09-10T11:32:02.776Z,100931.59
2018-09-10T11:34:33.623Z,100936.88
2018-09-10T11:37:04.455Z,100932.95
2018-09-10T11:39:36.296Z,100938.78
2018-09-10T11:42:07.907Z,100932.25
2018-09-10T11:44:38.973Z,100936.17
2018-09-10T11:47:09.981Z,100937.20
2018-09-10T11:49:41.202Z,100935.52
2018-09-10T11:52:12.400Z,100934.14
2018-09-10T11:54:43.715Z,100927.23
2018-09-10T11:57:14.757Z,100916.62
2018-09-10T11:59:46.205Z,100920.91
2018-09-10T12:02:17.410Z,100911.82
2018-09-10T12:04:48.772Z,100909.44
2018-09-10T12:07:19.836Z,100912.70
2018-09-10T12:09:51.225Z,100905.27
2018-09-10T12:12:22.605Z,100911.02
2018-09-10T12:14:53.848Z,100909.83
2018-09-10T12:17:24.791Z,100906.25
2018-09-10T12:19:56.316Z,100905.20
2018-09-10T12:22:27.627Z,100905.41
2018-09-10T12:24:58.850Z,100902.80
2018-09-10T12:27:29.881Z,100905.99
2018-09-10T12:30:00.383Z,100904.23
2018-09-10T12:32:31.681Z,100901.89
2018-09-10T12:35:02.779Z,100899.23
2018-09-10T12:37:34.209Z,100896.28
2018-09-10T12:40:05.796Z,100893.75
2018-09-10T12:42:37.312Z,100896.98
2018-09-10T12:45:08.911Z,100888.28
2018-09-10T12:47:40.370Z,100891.64
2018-09-10T12:50:11.865Z,100897.65
2018-09-10T12:52:43.313Z,100889.96
2018-09-10T12:55:14.806Z,100888.77
2018-09-10T12:57:47.314Z,100900.06
2018-09-10T13:00:19.521Z,100886.91
2018-09-10T13:02:51.196Z,100874.25
2018-09-10T13:05:22.834Z,100877.96
2018-09-10T13:07:54.373Z,100868.38
2018-09-10T13:10:25.958Z,100855.93
2018-09-10T13:12:57.616Z,100854.25
2018-09-10T13:15:29.207Z,100853.72
2018-09-10T13:18:00.692Z,100859.54
2018-09-10T13:20:32.220Z,100859.02
2018-09-10T13:23:03.687Z,100858.48
2018-09-10T13:25:35.208Z,100854.56
2018-09-10T13:30:49.798Z,100857.83
2018-09-10T13:33:20.787Z,100846.56
2018-09-10T13:35:51.993Z,100858.62
2018-09-10T13:38:22.884Z,100858.80
2018-09-10T13:40:53.909Z,100854.37
2018-09-10T13:43:24.810Z,100859.86
2018-09-10T13:45:55.917Z,100858.48
2018-09-10T13:48:26.793Z,100861.93
2018-09-10T13:50:57.890Z,100864.67
2018-09-10T13:53:28.790Z,100863.30
2018-09-10T13:56:00.211Z,100867.41
2018-09-10T13:58:31.343Z,100866.88
2018-09-10T14:01:02.677Z,100867.75
2018-09-10T14:03:33.725Z,100866.38
2018-09-10T14:06:04.799Z,100867.22
2018-09-10T14:08:35.823Z,100864.27
2018-09-10T14:11:07.201Z,100860.91
2018-09-10T14:13:38.464Z,100861.22
2018-09-10T14:16:09.683Z,100865.52
2018-09-10T14:18:40.890Z,100861.75
2018-09-10T14:21:12.432Z,100857.43
2018-09-10T14:23:44.211Z,100850.94
2018-09-10T14:26:15.758Z,100849.56
2018-09-10T14:28:47.424Z,100851.46
2018-09-10T14:31:18.931Z,100842.38
2018-09-10T14:33:49.555Z,100843.75
2018-09-10T14:36:21.209Z,100842.38
2018-09-10T14:38:52.627Z,100843.75
2018-09-10T14:41:24.284Z,100845.12
2018-09-10T14:43:55.682Z,100835.53
2018-09-10T14:46:30.325Z,100836.72
2018-09-10T14:49:01.760Z,100829.04
2018-09-10T14:51:33.427Z,100829.56
2018-09-10T14:54:04.811Z,100837.95
2018-09-10T14:56:36.427Z,100820.22
2018-09-10T14:59:08.204Z,100818.80
2018-09-10T15:01:39.790Z,100823.75
2018-09-10T15:04:11.514Z,100829.35
2018-09-10T15:06:42.955Z,100829.35
2018-09-10T15:09:13.524Z,100826.83
2018-09-10T15:11:45.213Z,100835.67
2018-09-10T15:14:16.728Z,100832.09
2018-09-10T15:16:48.212Z,100822.51
2018-09-10T15:19:19.686Z,100828.69
2018-09-10T15:21:50.916Z,100824.94
2018-09-10T15:24:22.357Z,100827.98
2018-09-10T15:26:53.757Z,100823.22
2018-09-10T15:29:25.310Z,100821.41
2018-09-10T15:31:56.771Z,100836.06
2018-09-10T15:34:28.310Z,100833.33
2018-09-10T15:36:59.769Z,100825.95
2018-09-10T15:39:31.195Z,100827.67
2018-09-10T15:42:02.719Z,100834.70
2018-09-10T15:44:34.307Z,100833.45
2018-09-10T15:47:05.757Z,100829.35
2018-09-10T15:49:37.210Z,100823.56
2018-09-10T15:52:08.810Z,100813.14
2018-09-10T15:54:40.291Z,100815.00
2018-09-10T15:57:11.703Z,100813.33
2018-09-10T15:59:43.050Z,100807.01
2018-09-10T16:02:14.701Z,100809.74
2018-09-10T16:04:46.185Z,100817.12
2018-09-10T16:07:17.687Z,100817.61
2018-09-10T16:09:49.195Z,100818.14
2018-09-10T16:12:20.648Z,100815.93
2018-09-10T16:14:52.197Z,100816.77
2018-09-10T16:17:23.701Z,100823.83
2018-09-10T16:19:55.196Z,100831.51
2018-09-10T16:22:26.726Z,100827.05
2018-09-10T16:24:58.291Z,100827.58
2018-09-10T16:27:30.382Z,100827.05
2018-09-10T16:30:01.725Z,100837.16
2018-09-10T16:32:33.197Z,100833.90
2018-09-10T16:35:04.678Z,100841.09
2018-09-10T16:37:36.197Z,100834.25
2018-09-10T16:40:08.313Z,100832.53
2018-09-10T16:42:39.737Z,100827.05
2018-09-10T16:45:11.267Z,100815.93
2018-09-10T16:47:42.730Z,100820.56
2018-09-10T16:50:14.425Z,100813.85
2018-09-10T16:52:45.767Z,100817.74
2018-09-10T16:55:17.211Z,100819.91
2018-09-10T16:57:48.716Z,100819.91
2018-09-10T17:00:20.212Z,100824.67
2018-09-10T17:02:51.725Z,100821.41
2018-09-10T17:05:23.202Z,100818.62
2018-09-10T17:07:54.695Z,100822.52
2018-09-10T17:10:26.200Z,100817.25
2018-09-10T17:12:57.698Z,100814.30
2018-09-10T17:15:29.328Z,100805.69
2018-09-10T17:18:00.744Z,100801.58
2018-09-10T17:20:32.358Z,100803.61
2018-09-10T17:23:03.813Z,100807.53
2018-09-10T17:25:35.366Z,100814.82
2018-09-10T17:28:06.782Z,100809.43
2018-09-10T17:30:38.311Z,100798.61
2018-09-10T17:33:09.818Z,100812.03
2018-09-10T17:35:41.375Z,100813.84
2018-09-10T17:38:12.897Z,100811.81
2018-09-10T17:40:44.489Z,100831.73
2018-09-10T17:43:15.961Z,100835.88
2018-09-10T17:45:46.520Z,100842.99
2018-09-10T17:48:18.307Z,100843.28
2018-09-10T17:50:49.883Z,100844.31
2018-09-10T17:53:21.565Z,100849.12
2018-09-10T17:55:52.979Z,100855.31
2018-09-10T17:58:24.619Z,100856.77
2018-09-10T18:00:55.906Z,100856.05
2018-09-10T18:03:26.560Z,100859.19
2018-09-10T18:05:57.948Z,100865.38
2018-09-10T18:08:28.553Z,100879.78
2018-09-10T18:11:00.317Z,100875.14
2018-09-10T18:13:31.772Z,100872.41
2018-09-10T18:16:03.368Z,100867.09
2018-09-10T18:18:34.803Z,100874.30
2018-09-10T18:21:06.294Z,100894.13
2018-09-10T18:23:37.773Z,100910.38
2018-09-10T18:26:09.312Z,100914.14
2018-09-10T18:28:40.793Z,100911.36
2018-09-10T18:31:11.805Z,100900.48
2018-09-10T18:33:43.414Z,100905.04
2018-09-10T18:36:14.718Z,100910.20
2018-09-10T18:38:46.528Z,100902.75
2018-09-10T18:41:18.198Z,100925.84
2018-09-10T18:43:49.836Z,100918.16
2018-09-10T18:46:21.384Z,100929.03
2018-09-10T18:48:52.900Z,100932.12
2018-09-10T18:51:24.476Z,100934.98
2018-09-10T18:53:56.215Z,100942.33
2018-09-10T18:56:27.668Z,100939.33
2018-09-10T18:58:59.298Z,100944.36
2018-09-10T19:01:30.757Z,100943.56
2018-09-10T19:04:02.347Z,100941.31
2018-09-10T19:06:33.804Z,100947.05
2018-09-10T19:09:06.196Z,100951.16
2018-09-10T19:11:37.671Z,100961.38
2018-09-10T19:14:09.329Z,100959.16
2018-09-10T19:16:40.716Z,100951.29
2018-09-10T19:19:12.304Z,100939.09
2018-09-10T19:21:43.729Z,100946.70
2018-09-10T19:24:15.336Z,100949.80
2018-09-10T19:26:46.713Z,100946.53
2018-09-10T19:29:18.306Z,100949.31
2018-09-10T19:31:49.731Z,100945.73
2018-09-10T19:34:21.302Z,100943.25
2018-09-10T19:36:52.714Z,100946.52
2018-09-10T19:39:24.408Z,100959.78
2018-09-10T19:41:56.395Z,100964.98
2018-09-10T19:44:27.832Z,100966.36
2018-09-10T19:46:58.573Z,100965.03
2018-09-10T19:49:30.199Z,100960.00
2018-09-10T19:52:01.698Z,100960.34
2018-09-10T19:54:33.202Z,100961.59
2018-09-10T19:57:04.690Z,100955.84
2018-09-10T19:59:37.522Z,100943.30
2018-09-10T20:02:09.283Z,100963.09
2018-09-10T20:04:40.737Z,100964.98
2018-09-10T20:07:12.194Z,100955.05
2018-09-10T20:09:43.826Z,100959.37
2018-09-10T20:12:15.340Z,100954.61
2018-09-10T20:14:46.811Z,100944.94
2018-09-10T20:17:18.492Z,100942.54
2018-09-10T20:19:50.294Z,100941.05
2018-09-10T20:22:21.766Z,100950.95
2018-09-10T20:24:53.426Z,100953.02
2018-09-10T20:27:24.758Z,100950.77
2018-09-10T20:29:56.300Z,100934.24
2018-09-10T20:32:27.804Z,100943.70
2018-09-10T20:34:59.359Z,100935.96
2018-09-10T20:37:30.806Z,100933.84
2018-09-10T20:40:02.020Z,100936.94
2018-09-10T20:42:33.615Z,100949.92
2018-09-10T20:45:05.306Z,100945.16
2018-09-10T20:47:36.854Z,100942.06
2018-09-10T20:50:08.817Z,100940.83
2018-09-10T20:52:40.431Z,100951.92
2018-09-10T20:55:11.977Z,100954.39
2018-09-10T20:57:43.683Z,100954.78
2018-09-10T21:00:15.313Z,100960.22
2018-09-10T21:02:46.773Z,100947.19
2018-09-10T21:05:18.037Z,100947.23
2018-09-10T21:07:48.746Z,100949.31
2018-09-10T21:10:20.436Z,100936.40
2018-09-10T21:12:51.854Z,100951.86
2018-09-10T21:15:23.897Z,100952.05
2018-09-10T21:17:54.570Z,100950.28
2018-09-10T21:20:26.220Z,100953.02
2018-09-10T21:22:57.715Z,100951.02
2018-09-10T21:25:29.440Z,100952.44
2018-09-10T21:28:00.859Z,100970.38
2018-09-10T21:30:32.443Z,100966.09
2018-09-10T21:33:03.729Z,100970.06
2018-09-10T21:35:35.352Z,100972.53
2018-09-10T21:38:06.799Z,100981.59
2018-09-10T21:40:38.428Z,100978.85
2018-09-10T21:43:09.810Z,100989.80
2018-09-10T21:45:45.432Z,100992.86
2018-09-10T21:48:16.716Z,100998.33
2018-09-10T21:50:48.208Z,101002.13
2018-09-10T21:53:19.659Z,101000.94
2018-09-10T21:55:50.829Z,100994.75
2018-09-10T21:58:21.816Z,100986.37
2018-09-10T22:00:56.559Z,100982.47
2018-09-10T22:03:27.888Z,100978.68
2018-09-10T22:06:00.222Z,100988.27
2018-09-10T22:08:31.483Z,100987.08
2018-09-10T22:11:02.755Z,100996.30
2018-09-10T22:13:33.870Z,100998.69
2018-09-10T22:16:04.967Z,100991.71
2018-09-10T22:18:35.443Z,100991.92
2018-09-10T22:21:06.814Z,100986.76
2018-09-10T22:23:37.782Z,100987.08
2018-09-10T22:26:08.972Z,100982.69
2018-09-10T22:28:39.373Z,100995.64
2018-09-10T22:31:10.736Z,100990.87
2018-09-10T22:33:41.862Z,100993.42
2018-09-10T22:36:12.885Z,101001.16
2018-09-10T22:38:43.845Z,100997.75
2018-09-10T22:41:15.401Z,100998.49
2018-09-10T22:43:46.715Z,101005.80
2018-09-10T22:46:18.297Z,101001.16
2018-09-10T22:48:49.774Z,101007.69
2018-09-10T22:51:21.500Z,101009.58
2018-09-10T22:53:53.514Z,101011.97
2018-09-10T22:56:25.221Z,101015.38
2018-09-10T22:58:57.372Z,101010.74
2018-09-10T23:01:28.908Z,101005.09
2018-09-10T23:03:59.552Z,101007.02
2018-09-10T23:06:31.207Z,101002.39
2018-09-10T23:09:02.741Z,100995.93
2018-09-10T23:11:34.366Z,100995.75
2018-09-10T23:14:05.717Z,100998.28
2018-09-10T23:16:37.464Z,101001.23
2018-09-10T23:19:08.965Z,101003.09
2018-09-10T23:21:40.513Z,100998.00
2018-09-10T23:24:11.901Z,100997.48
2018-09-10T23:26:43.439Z,101005.69
2018-09-10T23:29:14.806Z,101005.20
2018-09-10T23:31:46.453Z,101007.94
2018-09-10T23:34:17.883Z,101013.20
2018-09-10T23:36:49.396Z,101012.75
2018-09-10T23:39:20.907Z,101012.05
2018-09-10T23:41:52.416Z,101008.30
2018-09-10T23:44:23.756Z,101003.69
2018-09-10T23:46:55.517Z,101006.75
2018-09-10T23:49:27.191Z,101006.43
2018-09-10T23:51:58.801Z,101019.06
2018-09-10T23:54:30.398Z,101014.12
2018-09-10T23:57:01.910Z,101011.23
2018-09-10T23:59:32.588Z,101017.95
